Time;durP1;ratioP1;P1;durP2;ratioP2;P2;SDS_P1;SDS_P2;PMS_P1;PMS_P2;Temp;Humidity;BMP_temperature;BMP_pressure;BME280_temperature;BME280_humidity;BME280_pressure;Samples;Min_cycle;Max_cycle;Signal;HPM_P1;HPM_P2
2021/10/10 00:00:46;;;;;;;;;53.00;43.50;;;;;14.99;61.79;102332.44;5017934;28;45259;-80
2021/10/10 00:03:12;;;;;;;;;54.25;43.75;;;;;14.97;61.57;102336.66;5018090;28;45913;-81
2021/10/10 00:05:37;;;;;;;;;51.00;42.25;;;;;14.91;61.85;102334.63;5018358;28;45204;-80
2021/10/10 00:08:03;;;;;;;;;53.25;42.75;;;;;14.86;62.06;102338.75;5017117;28;45271;-81
2021/10/10 00:10:30;;;;;;;;;47.75;40.00;;;;;14.77;61.90;102322.63;5017978;28;45321;-80
2021/10/10 00:12:56;;;;;;;;;49.50;38.75;;;;;14.76;62.28;102329.53;5017295;28;46072;-81
2021/10/10 00:15:22;;;;;;;;;49.00;40.75;;;;;14.68;62.32;102323.03;5017814;28;45327;-80
2021/10/10 00:17:47;;;;;;;;;49.25;39.75;;;;;14.69;62.60;102323.09;5018550;28;45383;-77
2021/10/10 00:20:13;;;;;;;;;44.75;37.00;;;;;14.67;62.40;102329.97;5018276;28;45461;-80
2021/10/10 00:22:39;;;;;;;;;52.50;41.25;;;;;14.61;62.91;102323.50;5017984;28;46397;-78
2021/10/10 00:25:07;;;;;;;;;51.50;42.00;;;;;14.60;62.72;102330.41;5018309;28;45355;-79
2021/10/10 00:27:33;;;;;;;;;46.25;39.50;;;;;14.54;62.51;102323.16;5016810;28;45442;-79
2021/10/10 00:30:00;;;;;;;;;51.25;40.75;;;;;14.53;63.22;102326.56;5018156;28;45585;-79
2021/10/10 00:32:26;;;;;;;;;49.50;40.00;;;;;14.55;62.98;102337.09;5017630;28;45392;-81
2021/10/10 00:34:51;;;;;;;;;51.00;41.75;;;;;14.47;62.94;102321.06;5017225;28;45473;-80
2021/10/10 00:37:17;;;;;;;;;53.75;42.50;;;;;14.45;62.90;102317.47;5017603;28;45376;-80
2021/10/10 00:39:42;;;;;;;;;50.75;39.25;;;;;14.44;62.62;102326.09;5017602;28;45707;-80
2021/10/10 00:42:08;;;;;;;;;52.25;41.50;;;;;14.49;62.76;102326.34;5017186;28;46078;-81
2021/10/10 00:44:34;;;;;;;;;48.75;40.75;;;;;14.49;62.89;102327.25;5021111;28;45432;-80
2021/10/10 00:47:00;;;;;;;;;50.00;42.00;;;;;14.49;62.99;102332.47;5037788;28;45469;-80
2021/10/10 00:49:26;;;;;;;;;54.75;40.25;;;;;14.48;63.18;102325.44;5018523;28;45381;-80
2021/10/10 00:51:53;;;;;;;;;50.00;42.25;;;;;14.44;63.14;102328.69;5016799;28;45995;-80
2021/10/10 00:54:20;;;;;;;;;53.25;42.50;;;;;14.42;63.23;102313.81;5016985;28;45839;-82
2021/10/10 00:56:47;;;;;;;;;48.00;38.25;;;;;14.41;63.24;102318.13;5016885;28;45292;-82
2021/10/10 00:59:14;;;;;;;;;49.75;39.25;;;;;14.43;62.95;102324.28;5017225;28;45271;-80
2021/10/10 01:01:41;;;;;;;;;52.00;41.75;;;;;14.39;63.09;102325.84;5017034;28;45424;-81
2021/10/10 01:04:08;;;;;;;;;53.00;42.75;;;;;14.36;63.12;102333.50;5016524;28;45296;-80
2021/10/10 01:06:33;;;;;;;;;49.50;38.50;;;;;14.37;63.42;102337.88;5016794;28;45440;-80
2021/10/10 01:08:59;;;;;;;;;47.50;39.50;;;;;14.33;63.34;102332.44;5017322;28;45337;-80
2021/10/10 01:11:28;;;;;;;;;50.75;40.25;;;;;14.24;63.59;102320.72;5016857;28;45917;-80
2021/10/10 01:13:54;;;;;;;;;52.25;40.25;;;;;14.29;63.58;102328.78;5016700;28;45407;-80
2021/10/10 01:16:21;;;;;;;;;49.75;38.25;;;;;14.32;63.81;102328.03;5016618;28;45334;-81
2021/10/10 01:18:46;;;;;;;;;48.25;40.00;;;;;14.25;63.35;102316.41;5015914;28;45585;-81
2021/10/10 01:21:12;;;;;;;;;56.75;43.75;;;;;14.26;63.51;102318.19;5016386;28;45336;-80
2021/10/10 01:23:37;;;;;;;;;53.00;43.00;;;;;14.18;63.68;102309.06;5017491;28;45351;-85
2021/10/10 01:26:03;;;;;;;;;51.00;41.50;;;;;14.22;63.55;102309.31;5017427;28;45239;-85
2021/10/10 01:28:29;;;;;;;;;50.75;40.00;;;;;14.23;63.99;102316.31;5017071;28;45568;-82
2021/10/10 01:30:54;;;;;;;;;50.50;40.25;;;;;14.19;63.74;102306.56;5016117;28;45790;-82
2021/10/10 01:33:20;;;;;;;;;49.75;39.00;;;;;14.25;63.56;102313.81;5016606;28;45821;-85
2021/10/10 01:35:46;;;;;;;;;46.00;38.50;;;;;14.19;63.53;102303.03;5018151;28;45327;-82
2021/10/10 01:38:16;;;;;;;;;48.75;40.25;;;;;14.23;63.77;102320.66;5018588;28;45351;-80
2021/10/10 01:40:44;;;;;;;;;52.50;40.75;;;;;14.16;63.99;102298.56;5019386;28;46257;-80
2021/10/10 01:43:10;;;;;;;;;51.25;43.25;;;;;14.24;64.03;102312.91;5016887;28;45374;-79
2021/10/10 01:45:35;;;;;;;;;49.75;39.50;;;;;14.21;63.83;102314.44;5016417;28;45336;-81
2021/10/10 01:48:01;;;;;;;;;50.00;39.25;;;;;14.22;64.10;102311.03;5016363;28;45516;-83
2021/10/10 01:50:27;;;;;;;;;50.50;40.50;;;;;14.17;64.10;102300.38;5016119;28;46022;-80
2021/10/10 01:52:52;;;;;;;;;45.25;37.00;;;;;14.14;63.95;102294.97;5015935;28;45454;-81
2021/10/10 01:55:19;;;;;;;;;49.50;38.50;;;;;14.13;64.07;102300.13;5016129;28;45418;-80
2021/10/10 01:57:46;;;;;;;;;51.25;42.75;;;;;14.09;63.84;102291.25;5016116;28;45417;-81
2021/10/10 02:00:12;;;;;;;;;48.25;39.00;;;;;14.12;64.30;102296.59;5016125;28;45352;-80
2021/10/10 02:02:39;;;;;;;;;54.00;42.75;;;;;14.13;63.95;102306.22;5016269;28;45342;-80
2021/10/10 02:05:05;;;;;;;;;53.25;42.50;;;;;14.06;64.53;102286.75;5015729;28;45454;-79
2021/10/10 02:07:30;;;;;;;;;49.00;40.00;;;;;14.11;64.03;102301.75;5016558;28;45615;-83
2021/10/10 02:09:56;;;;;;;;;57.00;42.25;;;;;14.06;63.98;102294.56;5015631;28;46037;-79
2021/10/10 02:12:22;;;;;;;;;51.75;43.00;;;;;14.04;63.87;102293.56;5016767;28;45300;-78
2021/10/10 02:14:47;;;;;;;;;55.25;43.75;;;;;14.03;64.48;102293.50;5014665;28;45396;-80
2021/10/10 02:17:13;;;;;;;;;55.25;44.50;;;;;14.02;64.33;102286.50;5016295;28;45433;-79
2021/10/10 02:19:38;;;;;;;;;52.75;44.00;;;;;13.95;64.31;102287.00;5015789;28;46133;-79
2021/10/10 02:22:04;;;;;;;;;57.50;45.25;;;;;13.87;64.66;102284.88;5015499;28;45445;-80
2021/10/10 02:24:29;;;;;;;;;52.00;40.50;;;;;13.90;64.75;102313.66;5016032;28;45390;-80
2021/10/10 02:26:55;;;;;;;;;52.50;43.75;;;;;13.85;64.45;102304.72;5019137;28;45381;-79
2021/10/10 02:29:21;;;;;;;;;54.00;44.00;;;;;13.85;64.71;102309.91;5021248;28;46018;-79
2021/10/10 02:31:47;;;;;;;;;50.00;41.00;;;;;13.75;65.05;102303.28;5020290;28;45322;-80
2021/10/10 02:34:15;;;;;;;;;51.75;40.25;;;;;13.75;64.59;102302.41;5020367;28;45384;-79
2021/10/10 02:36:42;;;;;;;;;52.25;42.25;;;;;13.70;65.06;102304.75;5019136;28;45570;-82
2021/10/10 02:39:09;;;;;;;;;49.25;40.00;;;;;13.69;65.13;102307.25;5019252;28;46633;-79
2021/10/10 02:41:35;;;;;;;;;54.25;42.50;;;;;13.68;64.58;102308.97;5019090;28;46023;-81
2021/10/10 02:44:01;;;;;;;;;54.75;41.50;;;;;13.68;65.01;102313.25;5018033;28;45390;-80
2021/10/10 02:46:27;;;;;;;;;55.75;43.25;;;;;13.68;64.82;102305.47;5019372;28;45281;-80
2021/10/10 02:48:53;;;;;;;;;52.00;41.75;;;;;13.70;64.82;102309.06;5017489;28;45484;-80
2021/10/10 02:51:18;;;;;;;;;54.50;42.75;;;;;13.69;64.65;102302.03;5018823;28;45409;-80
2021/10/10 02:53:44;;;;;;;;;50.75;40.50;;;;;13.66;64.77;102307.97;5018672;28;45310;-79
2021/10/10 02:56:09;;;;;;;;;50.25;41.25;;;;;13.64;64.87;102304.41;5034737;28;45311;-81
2021/10/10 02:58:35;;;;;;;;;53.75;43.00;;;;;13.59;64.74;102298.94;5018878;28;45799;-81
2021/10/10 03:01:01;;;;;;;;;51.75;41.50;;;;;13.58;64.81;102304.94;5018510;28;45381;-82
2021/10/10 03:03:26;;;;;;;;;47.75;40.25;;;;;13.57;65.06;102310.06;5017296;28;45399;-81
2021/10/10 03:05:52;;;;;;;;;50.75;40.50;;;;;13.57;65.07;102304.88;5018943;28;45629;-80
2021/10/10 03:08:18;;;;;;;;;48.25;39.25;;;;;13.40;64.80;102276.16;5018451;28;45390;-81
2021/10/10 03:10:44;;;;;;;;;53.25;41.75;;;;;13.54;64.83;102300.41;5018265;28;45362;-80
2021/10/10 03:13:10;;;;;;;;;51.50;42.00;;;;;13.53;64.66;102319.41;5019219;28;45472;-81
2021/10/10 03:15:39;;;;;;;;;54.25;41.50;;;;;13.52;64.85;102303.69;5021657;28;45451;-81
2021/10/10 03:18:04;;;;;;;;;52.25;42.25;;;;;13.40;64.47;102289.19;5021966;28;46008;-79
2021/10/10 03:20:30;;;;;;;;;52.50;39.75;;;;;13.47;64.39;102306.03;5023963;28;45367;-82
2021/10/10 03:22:55;;;;;;;;;51.75;41.25;;;;;13.43;64.79;102299.78;5019535;28;45213;-84
2021/10/10 03:25:21;;;;;;;;;53.00;42.50;;;;;13.37;64.53;102293.28;5019272;28;45487;-82
2021/10/10 03:27:47;;;;;;;;;49.25;39.00;;;;;13.40;64.38;102310.00;5018001;28;46169;-81
2021/10/10 03:30:12;;;;;;;;;51.75;40.00;;;;;13.36;64.45;102301.88;5018628;28;45466;-78
2021/10/10 03:32:38;;;;;;;;;52.00;42.50;;;;;13.33;64.54;102305.22;5018728;28;45330;-81
2021/10/10 03:35:04;;;;;;;;;51.50;43.00;;;;;13.30;64.38;102297.22;5018218;28;45636;-81
2021/10/10 03:37:30;;;;;;;;;54.50;41.25;;;;;13.29;64.73;102308.44;5016809;28;47327;-79
2021/10/10 03:39:56;;;;;;;;;51.00;38.50;;;;;13.25;64.82;102307.38;5017696;28;45402;-79
2021/10/10 03:42:22;;;;;;;;;52.25;40.25;;;;;13.19;64.80;102308.72;5017150;28;45308;-79
2021/10/10 03:44:48;;;;;;;;;51.00;42.00;;;;;13.07;64.62;102298.50;5017976;28;45589;-78
2021/10/10 03:47:15;;;;;;;;;46.25;38.00;;;;;12.97;64.83;102279.78;5017948;28;45550;-78
2021/10/10 03:49:42;;;;;;;;;47.50;37.75;;;;;13.07;64.90;102308.91;5018445;28;45361;-79
2021/10/10 03:52:09;;;;;;;;;50.75;40.00;;;;;12.98;64.99;102299.78;5022577;28;45437;-80
2021/10/10 03:57:13;;;;;;;;;46.00;38.75;;;;;12.97;64.79;102302.25;5017951;28;45524;-79
2021/10/10 03:59:41;;;;;;;;;46.50;38.25;;;;;12.98;64.68;102306.66;5017900;28;45855;-80
2021/10/10 04:02:08;;;;;;;;;52.50;41.00;;;;;13.01;64.74;102305.13;5017563;28;45373;-79
2021/10/10 04:04:36;;;;;;;;;50.25;40.50;;;;;12.99;65.08;102304.16;5018527;28;45327;-80
2021/10/10 04:07:02;;;;;;;;;52.75;40.75;;;;;12.96;65.14;102297.88;5019644;28;45485;-79
2021/10/10 04:09:27;;;;;;;;;50.00;39.75;;;;;12.96;64.80;102306.56;5021830;28;45415;-80
2021/10/10 04:11:53;;;;;;;;;52.25;42.25;;;;;12.82;64.97;102282.38;5020899;28;45169;-81
2021/10/10 04:14:19;;;;;;;;;49.25;39.25;;;;;12.87;64.92;102311.22;5018396;28;45773;-80
2021/10/10 04:16:44;;;;;;;;;48.25;38.25;;;;;12.83;65.13;102298.84;5017745;28;45221;-81
2021/10/10 04:19:10;;;;;;;;;47.25;38.25;;;;;12.82;65.11;102305.75;5019736;28;45317;-80
2021/10/10 04:21:35;;;;;;;;;45.25;38.00;;;;;12.85;64.95;102323.25;5019496;28;45231;-79
2021/10/10 04:24:01;;;;;;;;;46.00;37.00;;;;;12.83;64.84;102323.16;5018984;28;45477;-80
2021/10/10 04:26:26;;;;;;;;;51.25;38.75;;;;;12.67;65.12;102297.94;5017501;28;45386;-81
2021/10/10 04:28:52;;;;;;;;;50.50;41.50;;;;;12.70;64.91;102313.69;5017387;28;45532;-82
2021/10/10 04:31:18;;;;;;;;;47.00;37.00;;;;;12.67;65.31;102308.34;5017894;28;45992;-80
2021/10/10 04:33:43;;;;;;;;;48.75;37.25;;;;;12.67;65.42;102312.63;5017894;28;45557;-78
2021/10/10 04:36:09;;;;;;;;;45.00;37.25;;;;;12.73;65.11;102317.28;5032867;28;45349;-83
2021/10/10 04:38:35;;;;;;;;;43.75;37.00;;;;;12.68;65.19;102312.75;5017197;28;45441;-84
2021/10/10 04:41:00;;;;;;;;;53.00;38.25;;;;;12.70;65.02;102318.91;5017014;28;45385;-83
2021/10/10 04:43:26;;;;;;;;;54.75;41.00;;;;;12.66;64.98;102321.22;5017170;28;45335;-81
2021/10/10 04:45:51;;;;;;;;;50.00;39.50;;;;;12.65;65.04;102314.22;5016872;28;45621;-82
2021/10/10 04:48:17;;;;;;;;;48.25;39.50;;;;;12.67;65.36;102315.22;5016703;28;45840;-81
2021/10/10 04:50:43;;;;;;;;;52.00;40.25;;;;;12.68;64.80;102323.13;5020633;28;45388;-82
2021/10/10 04:53:08;;;;;;;;;47.00;40.50;;;;;12.68;65.01;102325.72;5020703;28;45530;-83
2021/10/10 04:55:34;;;;;;;;;47.25;37.25;;;;;12.60;65.15;102313.06;5020457;28;45414;-82
2021/10/10 04:58:01;;;;;;;;;52.50;41.50;;;;;12.63;65.28;102315.88;5024022;28;45284;-80
2021/10/10 05:00:27;;;;;;;;;48.50;40.25;;;;;12.55;65.09;102302.41;5023361;28;45417;-80
2021/10/10 05:02:53;;;;;;;;;49.75;39.25;;;;;12.64;65.26;102320.22;5019436;28;45291;-83
2021/10/10 05:05:19;;;;;;;;;51.75;41.25;;;;;12.63;65.01;102321.06;5018699;28;46270;-84
2021/10/10 05:07:45;;;;;;;;;48.25;40.00;;;;;12.56;65.12;102313.69;5017982;28;45451;-80
2021/10/10 05:10:11;;;;;;;;;48.25;38.75;;;;;12.57;65.45;102316.38;5017604;28;45441;-80
2021/10/10 05:12:37;;;;;;;;;49.25;39.50;;;;;12.44;65.10;102296.53;5015507;28;45550;-80
2021/10/10 05:15:05;;;;;;;;;52.75;42.50;;;;;12.46;65.47;102312.22;5017185;28;46151;-80
2021/10/10 05:17:31;;;;;;;;;52.00;42.00;;;;;12.47;65.52;102317.50;5016459;28;45399;-79
2021/10/10 05:19:57;;;;;;;;;54.25;41.75;;;;;12.34;65.69;102307.16;5016700;28;45351;-80
2021/10/10 05:22:23;;;;;;;;;48.00;40.50;;;;;12.48;65.72;102326.19;5017643;28;45322;-78
2021/10/10 05:24:48;;;;;;;;;49.75;41.00;;;;;12.48;65.77;102326.19;5016370;28;45808;-79
2021/10/10 05:27:14;;;;;;;;;55.25;40.75;;;;;12.48;65.62;102324.50;5016869;28;45387;-80
2021/10/10 05:29:40;;;;;;;;;51.00;41.50;;;;;12.48;65.59;102324.50;5016611;28;45386;-79
2021/10/10 05:32:05;;;;;;;;;51.00;39.00;;;;;12.50;65.59;102324.59;5016532;28;45625;-80
2021/10/10 05:34:32;;;;;;;;;51.50;40.25;;;;;12.46;65.58;102322.63;5015604;28;45899;-79
2021/10/10 05:36:57;;;;;;;;;51.75;41.50;;;;;12.40;65.80;102310.16;5016311;28;45895;-79
2021/10/10 05:39:23;;;;;;;;;50.00;40.00;;;;;12.43;65.52;102325.03;5016276;28;45255;-79
2021/10/10 05:41:49;;;;;;;;;50.00;39.00;;;;;12.43;65.49;102328.50;5016352;28;45247;-80
2021/10/10 05:44:15;;;;;;;;;46.00;39.25;;;;;12.49;65.79;102346.16;5016772;28;45811;-79
2021/10/10 05:46:40;;;;;;;;;54.50;43.50;;;;;12.39;65.52;102324.81;5020171;28;45406;-82
2021/10/10 05:49:06;;;;;;;;;51.00;40.75;;;;;12.50;65.49;102345.38;5018948;28;45273;-84
2021/10/10 05:51:32;;;;;;;;;51.00;42.75;;;;;12.36;65.57;102314.25;5016718;28;45415;-84
2021/10/10 05:53:57;;;;;;;;;50.00;38.75;;;;;12.47;65.52;102334.81;5021520;28;45938;-83
2021/10/10 05:56:23;;;;;;;;;55.00;44.00;;;;;12.47;65.38;102345.22;5017932;28;45445;-83
2021/10/10 05:58:55;;;;;;;;;51.75;41.25;;;;;12.47;65.50;102345.22;5019735;28;45355;-81
2021/10/10 06:01:21;;;;;;;;;55.25;43.25;;;;;12.43;65.52;102349.28;5017349;28;45387;-82
2021/10/10 06:03:47;;;;;;;;;51.25;42.50;;;;;12.45;65.61;102352.00;5015512;28;45391;-86
2021/10/10 06:06:12;;;;;;;;;48.75;39.75;;;;;12.42;65.74;102346.59;5018424;28;45362;-82
2021/10/10 06:08:38;;;;;;;;;51.75;42.25;;;;;12.30;65.74;102337.25;5019655;28;45311;-82
2021/10/10 06:11:05;;;;;;;;;51.50;40.75;;;;;12.32;65.64;102335.66;5019917;28;45244;-84
2021/10/10 06:13:32;;;;;;;;;51.75;40.50;;;;;12.34;66.12;102346.13;5019503;28;46566;-83
2021/10/10 06:15:57;;;;;;;;;51.00;40.25;;;;;12.37;65.96;102348.91;5019772;28;46052;-83
2021/10/10 06:18:24;;;;;;;;;55.00;42.25;;;;;12.38;65.84;102349.00;5020143;28;45313;-82
2021/10/10 06:20:50;;;;;;;;;53.50;41.75;;;;;12.36;65.82;102336.72;5020701;28;45515;-85
2021/10/10 06:23:16;;;;;;;;;48.25;38.50;;;;;12.44;65.81;102343.28;5035301;28;48000;-80
2021/10/10 06:25:41;;;;;;;;;55.50;43.25;;;;;12.44;65.80;102356.28;5019544;28;45431;-79
2021/10/10 06:28:07;;;;;;;;;50.75;41.75;;;;;12.36;65.85;102347.13;5019324;28;45421;-81
2021/10/10 06:30:32;;;;;;;;;55.25;45.75;;;;;12.38;65.62;102362.00;5034530;28;45470;-80
2021/10/10 06:32:58;;;;;;;;;48.50;41.75;;;;;12.37;65.72;102361.91;5023475;28;45942;-80
2021/10/10 06:35:24;;;;;;;;;54.25;41.25;;;;;12.38;65.66;102369.78;5024013;28;45298;-82
2021/10/10 06:37:49;;;;;;;;;50.50;40.75;;;;;12.38;65.78;102361.09;5018916;28;45403;-81
2021/10/10 06:40:15;;;;;;;;;53.50;42.00;;;;;12.41;65.67;102373.38;5019925;28;45279;-81
2021/10/10 06:42:41;;;;;;;;;50.25;40.50;;;;;12.36;65.56;102361.00;5018447;28;45872;-81
2021/10/10 06:45:07;;;;;;;;;53.25;41.25;;;;;12.43;65.48;102376.97;5018749;28;45809;-81
2021/10/10 06:47:32;;;;;;;;;55.25;42.75;;;;;12.41;65.53;102365.59;5019366;28;45268;-81
2021/10/10 06:49:58;;;;;;;;;53.75;43.25;;;;;12.36;65.68;102362.72;5019189;28;45342;-82
2021/10/10 06:52:24;;;;;;;;;50.75;39.75;;;;;12.39;65.54;102371.59;5019800;28;46185;-81
2021/10/10 06:54:49;;;;;;;;;60.50;45.00;;;;;12.41;65.66;102373.38;5020282;28;45295;-84
2021/10/10 06:57:15;;;;;;;;;52.25;42.25;;;;;12.41;65.51;102376.88;5022369;28;45324;-85
2021/10/10 06:59:40;;;;;;;;;53.75;41.00;;;;;12.39;65.45;102375.88;5019992;28;45548;-84
2021/10/10 07:02:10;;;;;;;;;53.25;43.00;;;;;12.43;65.53;102374.38;5018666;28;45481;-84
2021/10/10 07:04:35;;;;;;;;;55.00;45.25;;;;;12.33;65.38;102358.22;5018851;28;45863;-84
2021/10/10 07:07:01;;;;;;;;;50.00;39.50;;;;;12.39;65.50;102360.31;5019464;28;45304;-84
2021/10/10 07:09:27;;;;;;;;;52.25;42.00;;;;;12.42;65.41;102359.59;5020334;28;45344;-85
2021/10/10 07:11:52;;;;;;;;;58.75;44.00;;;;;12.38;65.25;102359.38;5026265;28;45818;-80
2021/10/10 07:14:18;;;;;;;;;53.50;43.00;;;;;12.37;65.09;102365.38;5029110;28;45200;-85
2021/10/10 07:16:44;;;;;;;;;54.25;42.75;;;;;12.39;64.93;102378.50;5019980;28;45441;-82
2021/10/10 07:19:10;;;;;;;;;59.75;47.00;;;;;12.39;65.29;102383.69;5023429;28;45172;-85
2021/10/10 07:27:04;;;;;;;;;52.00;42.25;;;;;12.35;65.09;102372.22;5019570;28;45470;-78
2021/10/10 07:29:30;;;;;;;;;55.75;45.25;;;;;12.46;65.28;102397.97;5021022;28;45410;-84
2021/10/10 07:31:56;;;;;;;;;58.00;46.00;;;;;12.41;65.45;102379.50;5019806;28;46060;-80
2021/10/10 07:34:21;;;;;;;;;57.75;42.75;;;;;12.50;65.18;102386.94;5022773;28;45512;-78
2021/10/10 07:36:47;;;;;;;;;54.00;42.00;;;;;12.51;65.50;102389.66;5021242;28;45288;-86
2021/10/10 07:39:12;;;;;;;;;55.75;42.00;;;;;12.55;65.41;102388.13;5020157;28;45477;-84
2021/10/10 07:41:40;;;;;;;;;51.00;43.00;;;;;12.55;65.53;102382.94;5017929;28;45832;-81
2021/10/10 07:44:08;;;;;;;;;55.00;44.50;;;;;12.63;65.47;102388.63;5018319;28;45371;-80
2021/10/10 07:46:37;;;;;;;;;58.25;45.75;;;;;12.63;65.40;102389.50;5018014;28;45215;-80
2021/10/10 07:49:04;;;;;;;;;55.25;43.50;;;;;12.67;65.64;102399.28;5018507;28;45384;-80
2021/10/10 07:51:30;;;;;;;;;51.75;42.50;;;;;12.67;65.42;102400.97;5017576;28;46211;-80
2021/10/10 07:53:56;;;;;;;;;55.25;42.50;;;;;12.70;65.42;102404.66;5017680;28;45375;-80
2021/10/10 07:56:22;;;;;;;;;56.00;44.00;;;;;12.70;65.52;102395.97;5018062;28;45260;-80
2021/10/10 07:58:47;;;;;;;;;55.75;43.75;;;;;12.83;65.53;102408.00;5018230;28;45639;-78
2021/10/10 08:01:13;;;;;;;;;56.00;43.75;;;;;12.90;65.23;102409.28;5017137;28;45569;-80
2021/10/10 08:03:39;;;;;;;;;54.25;43.50;;;;;12.92;65.29;102403.38;5018050;28;45427;-80
2021/10/10 08:06:04;;;;;;;;;55.50;43.75;;;;;12.96;64.81;102407.06;5021940;28;45346;-81
2021/10/10 08:08:30;;;;;;;;;60.00;45.00;;;;;13.05;65.15;102404.13;5025941;28;45401;-79
2021/10/10 08:10:55;;;;;;;;;57.25;45.00;;;;;13.10;65.02;102402.72;5021966;28;46060;-82
2021/10/10 08:13:21;;;;;;;;;52.25;41.75;;;;;13.16;64.67;102408.25;5035568;28;45336;-80
2021/10/10 08:15:46;;;;;;;;;53.00;42.00;;;;;13.19;64.62;102415.34;5019780;28;45369;-81
2021/10/10 08:18:12;;;;;;;;;51.75;43.50;;;;;13.20;64.67;102419.75;5018595;28;45398;-80
2021/10/10 08:20:38;;;;;;;;;54.00;44.50;;;;;13.20;64.53;102415.47;5017878;28;46112;-84
2021/10/10 08:23:05;;;;;;;;;54.25;43.00;;;;;13.26;64.63;102420.13;5017010;28;45334;-81
2021/10/10 08:25:32;;;;;;;;;54.75;45.00;;;;;13.28;64.44;102419.41;5017109;28;45356;-79
2021/10/10 08:27:58;;;;;;;;;55.75;45.50;;;;;13.36;64.55;102421.56;5016673;28;45381;-81
2021/10/10 08:30:25;;;;;;;;;53.25;44.00;;;;;13.41;64.55;102410.66;5016940;28;45473;-82
2021/10/10 08:32:51;;;;;;;;;58.50;46.00;;;;;13.44;64.42;102400.44;5017067;28;45815;-79
2021/10/10 08:35:17;;;;;;;;;60.50;46.25;;;;;13.53;64.43;102406.97;5017225;28;45359;-81
2021/10/10 08:37:43;;;;;;;;;57.50;44.25;;;;;13.52;64.14;102387.88;5018449;28;45326;-84
2021/10/10 08:40:10;;;;;;;;;53.75;42.00;;;;;13.64;64.15;102398.09;5018316;28;45944;-81
2021/10/10 08:42:38;;;;;;;;;58.50;46.00;;;;;13.63;64.22;102396.28;5018230;28;45954;-84
2021/10/10 08:45:12;;;;;;;;;55.50;43.75;;;;;13.69;64.00;102385.34;5019205;28;45390;-86
2021/10/10 08:47:43;;;;;;;;;54.50;43.50;;;;;13.78;63.73;102375.44;5018497;28;45361;-88
2021/10/10 08:50:18;;;;;;;;;54.75;45.00;;;;;13.83;63.92;102394.84;5018509;28;45405;-81
2021/10/10 08:52:50;;;;;;;;;59.25;44.50;;;;;13.88;63.80;102414.22;5020419;28;46006;-86
2021/10/10 08:55:16;;;;;;;;;56.00;44.50;;;;;13.93;63.34;102425.78;5024349;28;45274;-83
2021/10/10 08:57:41;;;;;;;;;58.25;46.50;;;;;13.98;63.58;102431.25;5021281;28;45237;-83
2021/10/10 09:00:13;;;;;;;;;57.75;46.00;;;;;14.03;63.23;102422.03;5017795;28;45453;-81
2021/10/10 09:02:40;;;;;;;;;56.25;45.75;;;;;14.03;63.32;102414.22;5018770;28;45933;-80
2021/10/10 09:05:09;;;;;;;;;59.00;47.00;;;;;14.15;63.39;102423.50;5017477;28;45235;-83
2021/10/10 09:07:36;;;;;;;;;61.00;45.75;;;;;14.16;63.11;102413.19;5017207;28;45485;-79
2021/10/10 09:10:20;;;;;;;;;56.00;45.75;;;;;14.26;63.31;102409.38;5017388;28;45634;-79
2021/10/10 09:12:47;;;;;;;;;56.00;45.00;;;;;14.30;63.36;102406.13;5016149;28;45424;-79
2021/10/10 09:15:18;;;;;;;;;59.75;44.00;;;;;14.38;62.68;102406.56;5016690;28;45242;-85
2021/10/10 09:17:56;;;;;;;;;58.25;46.50;;;;;14.39;63.10;102416.16;5016834;28;45323;-80
2021/10/10 09:20:37;;;;;;;;;63.50;50.00;;;;;14.47;62.88;102422.69;5015215;28;46854;-82
2021/10/10 09:23:05;;;;;;;;;60.25;47.00;;;;;14.52;62.96;102425.53;5015772;28;45402;-80
2021/10/10 09:25:31;;;;;;;;;61.75;46.50;;;;;14.62;62.78;102437.38;5016398;28;45861;-82
2021/10/10 09:28:04;;;;;;;;;56.25;44.25;;;;;14.65;62.58;102425.41;5017606;28;45250;-79
2021/10/10 09:30:47;;;;;;;;;57.00;44.50;;;;;14.64;62.02;102428.81;5015516;28;46093;-82
2021/10/10 09:33:13;;;;;;;;;56.25;45.25;;;;;14.69;62.66;102437.81;5016003;28;45341;-82
2021/10/10 09:35:40;;;;;;;;;54.50;43.00;;;;;14.73;62.44;102441.50;5017910;28;45417;-79
2021/10/10 09:38:20;;;;;;;;;55.50;46.50;;;;;14.76;62.28;102440.75;5036163;28;45436;-80
2021/10/10 09:40:52;;;;;;;;;56.25;44.25;;;;;14.75;61.75;102434.63;5020090;28;45267;-81
2021/10/10 09:43:18;;;;;;;;;53.00;42.00;;;;;14.81;62.02;102441.88;5023399;28;45162;-80
2021/10/10 09:45:53;;;;;;;;;54.75;41.50;;;;;14.85;62.29;102423.00;5019301;28;45230;-82
2021/10/10 09:48:31;;;;;;;;;57.25;46.75;;;;;14.91;62.33;102423.31;5019200;28;45173;-84
2021/10/10 09:50:56;;;;;;;;;56.00;45.00;;;;;14.94;61.77;102422.59;5015722;28;47333;-81
2021/10/10 09:53:32;;;;;;;;;55.50;45.25;;;;;14.96;61.95;102424.47;5016877;28;45304;-81
2021/10/10 09:56:09;;;;;;;;;52.25;43.25;;;;;15.04;61.79;102430.09;5016838;28;45452;-81
2021/10/10 09:58:42;;;;;;;;;55.25;45.00;;;;;15.09;61.59;102427.72;5015861;28;45350;-82
2021/10/10 10:01:25;;;;;;;;;56.50;44.25;;;;;15.11;61.79;102429.59;5015691;28;46073;-82
2021/10/10 10:04:17;;;;;;;;;49.00;40.00;;;;;15.19;61.53;102435.22;5017136;28;45912;-85
2021/10/10 10:06:43;;;;;;;;;57.50;45.00;;;;;15.19;61.62;102421.25;5012197;28;45839;-84
2021/10/10 10:09:11;;;;;;;;;53.25;43.75;;;;;15.25;60.92;102424.19;5016311;28;45402;-83
2021/10/10 10:11:37;;;;;;;;;52.00;42.75;;;;;15.26;61.34;102428.59;5015530;28;46455;-83
2021/10/10 10:14:08;;;;;;;;;54.75;43.75;;;;;15.16;61.27;102412.47;5014123;28;45835;-81
2021/10/10 10:16:37;;;;;;;;;73.00;59.75;;;;;15.30;61.58;102431.44;5015286;28;45261;-81
2021/10/10 10:19:05;;;;;;;;;60.50;47.50;;;;;15.21;61.37;102409.19;5015499;28;45494;-82
2021/10/10 10:21:31;;;;;;;;;52.75;43.50;;;;;15.35;61.24;102426.47;5015275;28;46358;-83
2021/10/10 10:23:59;;;;;;;;;44.00;36.00;;;;;15.38;60.73;102420.50;5015811;28;45256;-81
2021/10/10 10:26:30;;;;;;;;;50.25;40.00;;;;;15.45;60.19;102427.81;5015942;28;45354;-80
2021/10/10 10:28:58;;;;;;;;;38.25;32.00;;;;;15.43;60.06;102421.63;5016525;28;45322;-80
2021/10/10 10:31:24;;;;;;;;;45.50;36.25;;;;;15.51;59.30;102417.69;5016985;28;45264;-83
2021/10/10 10:33:54;;;;;;;;;43.25;33.75;;;;;15.56;58.81;102421.41;5016006;28;45968;-81
2021/10/10 10:36:56;;;;;;;;;41.00;34.00;;;;;15.63;58.90;102431.38;5016283;28;45379;-80
2021/10/10 10:39:39;;;;;;;;;45.25;34.25;;;;;15.68;58.37;102435.91;5016711;28;45308;-80
2021/10/10 10:42:13;;;;;;;;;40.00;34.25;;;;;15.70;58.08;102435.19;5016722;28;46334;-80
2021/10/10 10:44:44;;;;;;;;;38.25;32.50;;;;;15.77;57.90;102437.25;5015150;28;45861;-83
2021/10/10 10:47:17;;;;;;;;;40.25;32.00;;;;;15.78;58.48;102431.22;5015557;28;45338;-80
2021/10/10 10:50:01;;;;;;;;;35.25;32.75;;;;;15.89;57.73;102441.34;5030570;28;45344;-81
2021/10/10 10:52:36;;;;;;;;;35.50;30.75;;;;;15.89;57.34;102431.78;5018373;28;45279;-83
2021/10/10 10:55:21;;;;;;;;;46.00;35.00;;;;;15.97;57.30;102433.88;5018686;28;45224;-82
2021/10/10 10:57:51;;;;;;;;;35.75;31.25;;;;;16.02;57.14;102424.53;5018706;28;45375;-80
2021/10/10 11:00:20;;;;;;;;;41.00;35.00;;;;;16.07;56.89;102428.28;5018872;28;45469;-82
2021/10/10 11:02:57;;;;;;;;;34.25;31.50;;;;;16.12;56.60;102436.34;5018038;28;45343;-81
2021/10/10 11:05:33;;;;;;;;;35.50;30.00;;;;;16.18;56.91;102423.56;5018709;28;45838;-83
2021/10/10 11:08:04;;;;;;;;;40.25;34.00;;;;;16.21;56.82;102426.31;5018649;28;45335;-83
2021/10/10 11:10:32;;;;;;;;;36.25;30.00;;;;;16.25;56.67;102423.94;5019820;28;45304;-81
2021/10/10 11:13:21;;;;;;;;;37.25;32.50;;;;;16.31;56.46;102431.16;5018372;28;45505;-78
2021/10/10 11:15:51;;;;;;;;;42.00;34.25;;;;;16.37;56.46;102431.44;5018183;28;45873;-79
2021/10/10 11:18:17;;;;;;;;;35.50;30.75;;;;;16.38;55.81;102412.31;5020690;28;45433;-81